sensor_id;sensor_type;location;lat;lon;timestamp;pressure;altitude;pressure_sealevel;temperature;humidity
57056;BME280;42945;51.718;5.324;2023-02-28T00:01:32;102943.41;;;-1.92;100.00
57056;BME280;42945;51.718;5.324;2023-02-28T00:07:19;102778.72;;;-2.56;100.00
57056;BME280;42945;51.718;5.324;2023-02-28T00:17:01;102950.41;;;-2.20;100.00
57056;BME280;42945;51.718;5.324;2023-02-28T00:22:51;102743.69;;;-3.01;100.00
57056;BME280;42945;51.718;5.324;2023-02-28T00:28:38;102943.00;;;-2.06;100.00
57056;BME280;42945;51.718;5.324;2023-02-28T00:34:26;102834.47;;;-2.75;100.00
57056;BME280;42945;51.718;5.324;2023-02-28T00:40:15;102928.25;;;-2.07;100.00
57056;BME280;42945;51.718;5.324;2023-02-28T00:46:04;102894.66;;;-1.99;100.00
57056;BME280;42945;51.718;5.324;2023-02-28T00:51:53;102791.31;;;-2.40;100.00
57056;BME280;42945;51.718;5.324;2023-02-28T00:57:42;102907.13;;;-1.54;100.00
57056;BME280;42945;51.718;5.324;2023-02-28T01:03:30;102986.53;;;-1.02;100.00
57056;BME280;42945;51.718;5.324;2023-02-28T01:09:19;102956.50;;;-1.55;100.00
57056;BME280;42945;51.718;5.324;2023-02-28T01:19:03;103054.06;;;-0.74;100.00
57056;BME280;42945;51.718;5.324;2023-02-28T01:24:51;102935.22;;;-1.41;100.00
57056;BME280;42945;51.718;5.324;2023-02-28T01:30:39;102941.88;;;-1.52;100.00
57056;BME280;42945;51.718;5.324;2023-02-28T01:36:27;102812.63;;;-2.20;100.00
57056;BME280;42945;51.718;5.324;2023-02-28T01:42:15;102946.59;;;-1.37;100.00
57056;BME280;42945;51.718;5.324;2023-02-28T01:48:07;102944.94;;;-1.33;100.00
57056;BME280;42945;51.718;5.324;2023-02-28T01:54:02;102814.28;;;-1.90;100.00
57056;BME280;42945;51.718;5.324;2023-02-28T01:59:54;102978.78;;;-0.64;100.00
57056;BME280;42945;51.718;5.324;2023-02-28T02:05:30;102694.66;;;-2.58;100.00
57056;BME280;42945;51.718;5.324;2023-02-28T02:11:23;102922.06;;;-1.12;100.00
57056;BME280;42945;51.718;5.324;2023-02-28T02:27:39;102895.13;;;-1.12;100.00
57056;BME280;42945;51.718;5.324;2023-02-28T02:40:22;102922.09;;;-1.09;100.00
57056;BME280;42945;51.718;5.324;2023-02-28T02:46:17;102915.28;;;-1.04;100.00
57056;BME280;42945;51.718;5.324;2023-02-28T02:52:11;102948.59;;;-0.90;100.00
57056;BME280;42945;51.718;5.324;2023-02-28T02:58:06;102918.44;;;-0.81;100.00
57056;BME280;42945;51.718;5.324;2023-02-28T03:04:14;102799.06;;;-1.40;100.00
57056;BME280;42945;51.718;5.324;2023-02-28T03:10:33;102964.59;;;-0.75;100.00
57056;BME280;42945;51.718;5.324;2023-02-28T03:28:41;102902.34;;;-0.63;100.00
57056;BME280;42945;51.718;5.324;2023-02-28T03:34:37;102849.22;;;-0.69;100.00
57056;BME280;42945;51.718;5.324;2023-02-28T03:40:30;102901.41;;;-0.65;100.00
57056;BME280;42945;51.718;5.324;2023-02-28T03:46:23;102889.75;;;-0.82;100.00
57056;BME280;42945;51.718;5.324;2023-02-28T03:52:12;102925.75;;;-0.64;100.00
57056;BME280;42945;51.718;5.324;2023-02-28T04:04:05;102916.34;;;-0.57;100.00
57056;BME280;42945;51.718;5.324;2023-02-28T04:09:54;132330.94;;;167.51;100.00
57056;BME280;42945;51.718;5.324;2023-02-28T04:15:42;102901.25;;;-0.72;100.00
57056;BME280;42945;51.718;5.324;2023-02-28T04:27:23;102951.97;;;-0.56;100.00
57056;BME280;42945;51.718;5.324;2023-02-28T04:33:10;102899.75;;;-0.61;100.00
57056;BME280;42945;51.718;5.324;2023-02-28T04:38:58;102911.34;;;-0.48;100.00
57056;BME280;42945;51.718;5.324;2023-02-28T04:44:46;102850.34;;;-0.56;100.00
57056;BME280;42945;51.718;5.324;2023-02-28T04:50:34;102916.41;;;-0.56;100.00
57056;BME280;42945;51.718;5.324;2023-02-28T04:56:21;102914.78;;;-0.49;100.00
57056;BME280;42945;51.718;5.324;2023-02-28T05:02:10;102913.13;;;-0.46;100.00
57056;BME280;42945;51.718;5.324;2023-02-28T05:07:58;102911.28;;;-0.51;100.00
57056;BME280;42945;51.718;5.324;2023-02-28T05:13:46;102906.09;;;-0.50;100.00
57056;BME280;42945;51.718;5.324;2023-02-28T05:23:35;102896.66;;;-0.43;100.00
57056;BME280;42945;51.718;5.324;2023-02-28T05:29:23;102892.72;;;-0.24;100.00
57056;BME280;42945;51.718;5.324;2023-02-28T05:35:11;102963.88;;;-0.30;100.00
57056;BME280;42945;51.718;5.324;2023-02-28T05:40:59;102885.81;;;-0.22;100.00
57056;BME280;42945;51.718;5.324;2023-02-28T05:46:47;102897.84;;;-0.27;100.00
57056;BME280;42945;51.718;5.324;2023-02-28T05:52:36;102893.59;;;-0.24;100.00
57056;BME280;42945;51.718;5.324;2023-02-28T05:58:26;102906.63;;;-0.24;100.00
57056;BME280;42945;51.718;5.324;2023-02-28T06:04:20;102991.47;;;0.46;100.00
57056;BME280;42945;51.718;5.324;2023-02-28T06:10:13;102912.91;;;-0.15;100.00
57056;BME280;42945;51.718;5.324;2023-02-28T06:16:01;102908.84;;;0.01;100.00
57056;BME280;42945;51.718;5.324;2023-02-28T06:25:49;102904.28;;;-0.11;100.00
57056;BME280;42945;51.718;5.324;2023-02-28T06:31:37;102900.84;;;-0.09;100.00
57056;BME280;42945;51.718;5.324;2023-02-28T06:37:25;102896.75;;;0.04;100.00
57056;BME280;42945;51.718;5.324;2023-02-28T06:43:16;102860.19;;;0.03;100.00
57056;BME280;42945;51.718;5.324;2023-02-28T06:49:05;102866.34;;;0.08;100.00
57056;BME280;42945;51.718;5.324;2023-02-28T06:54:56;102938.50;;;0.06;100.00
57056;BME280;42945;51.718;5.324;2023-02-28T07:00:52;102945.66;;;0.14;100.00
57056;BME280;42945;51.718;5.324;2023-02-28T07:06:39;103047.09;;;0.89;100.00
57056;BME280;42945;51.718;5.324;2023-02-28T07:12:27;102947.56;;;0.25;100.00
57056;BME280;42945;51.718;5.324;2023-02-28T07:18:15;102953.81;;;0.31;100.00
57056;BME280;42945;51.718;5.324;2023-02-28T07:27:58;102988.59;;;0.32;100.00
57056;BME280;42945;51.718;5.324;2023-02-28T07:33:47;102972.38;;;0.48;100.00
57056;BME280;42945;51.718;5.324;2023-02-28T07:39:34;102936.13;;;0.65;100.00
57056;BME280;42945;51.718;5.324;2023-02-28T07:45:21;102818.63;;;0.13;100.00
57056;BME280;42945;51.718;5.324;2023-02-28T07:51:09;103001.91;;;0.93;100.00
57056;BME280;42945;51.718;5.324;2023-02-28T07:56:57;102818.09;;;0.31;100.00
57056;BME280;42945;51.718;5.324;2023-02-28T08:02:45;102984.59;;;1.56;100.00
57056;BME280;42945;51.718;5.324;2023-02-28T08:08:34;102920.16;;;1.63;100.00
57056;BME280;42945;51.718;5.324;2023-02-28T08:14:22;102996.84;;;1.60;100.00
57056;BME280;42945;51.718;5.324;2023-02-28T08:20:10;102967.22;;;1.60;100.00
57056;BME280;42945;51.718;5.324;2023-02-28T08:25:58;102972.47;;;1.61;100.00
57056;BME280;42945;51.718;5.324;2023-02-28T08:31:47;102988.75;;;2.07;93.03
57056;BME280;42945;51.718;5.324;2023-02-28T08:37:35;102976.34;;;1.91;86.46
57056;BME280;42945;51.718;5.324;2023-02-28T08:43:24;102899.84;;;2.12;75.67
57056;BME280;42945;51.718;5.324;2023-02-28T08:49:12;102975.91;;;2.26;71.77
57056;BME280;42945;51.718;5.324;2023-02-28T08:55:00;102895.75;;;2.39;68.05
57056;BME280;42945;51.718;5.324;2023-02-28T09:00:50;102979.53;;;2.40;66.00
57056;BME280;42945;51.718;5.324;2023-02-28T09:06:38;102794.59;;;1.58;62.70
57056;BME280;42945;51.718;5.324;2023-02-28T09:12:33;102963.50;;;2.11;61.32
57056;BME280;42945;51.718;5.324;2023-02-28T09:18:21;102899.38;;;2.58;60.82
57056;BME280;42945;51.718;5.324;2023-02-28T09:24:10;102949.94;;;2.47;57.74
57056;BME280;42945;51.718;5.324;2023-02-28T09:30:00;102974.03;;;2.15;57.17
57056;BME280;42945;51.718;5.324;2023-02-28T09:35:49;103020.00;;;2.71;56.59
57056;BME280;42945;51.718;5.324;2023-02-28T09:41:39;102829.56;;;1.68;57.55
57056;BME280;42945;51.718;5.324;2023-02-28T09:47:42;102806.94;;;1.71;57.94
57056;BME280;42945;51.718;5.324;2023-02-28T09:53:35;102758.81;;;0.82;56.52
57056;BME280;42945;51.718;5.324;2023-02-28T09:59:43;102818.88;;;1.48;57.65
57056;BME280;42945;51.718;5.324;2023-02-28T10:11:36;102972.41;;;2.27;57.08
57056;BME280;42945;51.718;5.324;2023-02-28T10:17:36;102898.38;;;2.42;56.93
57056;BME280;42945;51.718;5.324;2023-02-28T10:23:32;102939.31;;;2.33;55.79
57056;BME280;42945;51.718;5.324;2023-02-28T10:33:22;102918.56;;;2.53;56.51
57056;BME280;42945;51.718;5.324;2023-02-28T10:45:26;102941.22;;;2.50;55.53
57056;BME280;42945;51.718;5.324;2023-02-28T10:51:18;102945.06;;;2.89;55.48
57056;BME280;42945;51.718;5.324;2023-02-28T10:57:18;102925.53;;;2.51;55.13
57056;BME280;42945;51.718;5.324;2023-02-28T11:03:25;103005.78;;;3.43;54.62
57056;BME280;42945;51.718;5.324;2023-02-28T11:09:25;102761.28;;;2.33;54.59
57056;BME280;42945;51.718;5.324;2023-02-28T11:16:19;102913.72;;;3.04;54.61
57056;BME280;42945;51.718;5.324;2023-02-28T11:21:37;103090.09;;;2.88;55.17
57056;BME280;42945;51.718;5.324;2023-02-28T11:39:17;102744.72;;;2.39;52.49
57056;BME280;42945;51.718;5.324;2023-02-28T11:51:27;102862.22;;;3.14;51.20
57056;BME280;42945;51.718;5.324;2023-02-28T12:15:33;102934.16;;;3.56;52.08
57056;BME280;42945;51.718;5.324;2023-02-28T12:27:21;103063.31;;;4.78;50.79
57056;BME280;42945;51.718;5.324;2023-02-28T12:33:13;102817.03;;;3.81;50.73
57056;BME280;42945;51.718;5.324;2023-02-28T12:39:14;102736.22;;;2.79;50.92
57056;BME280;42945;51.718;5.324;2023-02-28T12:45:19;102861.66;;;3.78;50.66
57056;BME280;42945;51.718;5.324;2023-02-28T12:51:10;102852.91;;;3.81;51.07
57056;BME280;42945;51.718;5.324;2023-02-28T12:57:19;102847.66;;;3.79;50.93
57056;BME280;42945;51.718;5.324;2023-02-28T13:09:08;102809.22;;;4.13;51.36
57056;BME280;42945;51.718;5.324;2023-02-28T13:21:22;102648.13;;;3.07;51.22
57056;BME280;42945;51.718;5.324;2023-02-28T13:33:32;102686.69;;;3.65;51.08
57056;BME280;42945;51.718;5.324;2023-02-28T13:45:28;102765.44;;;4.12;51.64
57056;BME280;42945;51.718;5.324;2023-02-28T13:51:35;102817.97;;;4.09;51.36
57056;BME280;42945;51.718;5.324;2023-02-28T14:03:32;102761.06;;;4.08;51.61
57056;BME280;42945;51.718;5.324;2023-02-28T14:09:31;102756.69;;;4.06;51.98
57056;BME280;42945;51.718;5.324;2023-02-28T14:15:30;102771.56;;;3.96;51.56
57056;BME280;42945;51.718;5.324;2023-02-28T14:27:35;102712.94;;;4.09;50.75
57056;BME280;42945;51.718;5.324;2023-02-28T14:33:41;102701.47;;;4.46;51.24
57056;BME280;42945;51.718;5.324;2023-02-28T14:39:31;102642.94;;;3.88;50.98
57056;BME280;42945;51.718;5.324;2023-02-28T14:45:21;102857.34;;;4.86;49.94
57056;BME280;42945;51.718;5.324;2023-02-28T14:51:09;102805.72;;;4.45;52.85
57056;BME280;42945;51.718;5.324;2023-02-28T14:56:57;102849.44;;;5.03;51.54
57056;BME280;42945;51.718;5.324;2023-02-28T15:02:46;102727.78;;;4.26;51.84
57056;BME280;42945;51.718;5.324;2023-02-28T15:08:34;102747.06;;;4.37;54.53
57056;BME280;42945;51.718;5.324;2023-02-28T15:14:26;102770.69;;;4.37;51.65
57056;BME280;42945;51.718;5.324;2023-02-28T15:20:16;102717.31;;;4.04;52.21
57056;BME280;42945;51.718;5.324;2023-02-28T15:26:05;102771.56;;;4.02;52.03
57056;BME280;42945;51.718;5.324;2023-02-28T15:42:12;102760.19;;;4.00;52.55
57056;BME280;42945;51.718;5.324;2023-02-28T15:54:32;102765.44;;;3.86;54.39
57056;BME280;42945;51.718;5.324;2023-02-28T16:00:29;102685.81;;;3.77;53.69
57056;BME280;42945;51.718;5.324;2023-02-28T16:12:26;102729.47;;;3.47;55.77
57056;BME280;42945;51.718;5.324;2023-02-28T16:18:16;102640.16;;;2.76;55.59
57056;BME280;42945;51.718;5.324;2023-02-28T16:24:05;102778.44;;;3.39;55.20
57056;BME280;42945;51.718;5.324;2023-02-28T16:29:53;102763.50;;;3.19;57.58
57056;BME280;42945;51.718;5.324;2023-02-28T16:35:42;102715.38;;;3.08;58.42
57056;BME280;42945;51.718;5.324;2023-02-28T16:41:29;102762.56;;;2.99;59.25
57056;BME280;42945;51.718;5.324;2023-02-28T16:47:18;102742.38;;;2.88;59.83
57056;BME280;42945;51.718;5.324;2023-02-28T16:53:07;102769.38;;;2.75;60.89
57056;BME280;42945;51.718;5.324;2023-02-28T16:58:58;102833.38;;;3.11;64.19
57056;BME280;42945;51.718;5.324;2023-02-28T17:04:47;102697.94;;;1.72;68.16
57056;BME280;42945;51.718;5.324;2023-02-28T17:10:36;102766.31;;;2.10;71.41
57056;BME280;42945;51.718;5.324;2023-02-28T17:16:32;102701.94;;;1.34;74.85
57056;BME280;42945;51.718;5.324;2023-02-28T17:22:21;102807.88;;;1.78;81.29
57056;BME280;42945;51.718;5.324;2023-02-28T17:28:09;102805.16;;;1.67;81.65
57056;BME280;42945;51.718;5.324;2023-02-28T17:33:58;102784.09;;;1.53;80.10
57056;BME280;42945;51.718;5.324;2023-02-28T17:39:45;102849.25;;;1.38;79.73
57056;BME280;42945;51.718;5.324;2023-02-28T17:45:33;102828.25;;;1.30;82.33
57056;BME280;42945;51.718;5.324;2023-02-28T17:51:24;102704.44;;;0.53;83.74
57056;BME280;42945;51.718;5.324;2023-02-28T17:57:14;102794.63;;;0.89;85.10
57056;BME280;42945;51.718;5.324;2023-02-28T18:03:16;102844.31;;;0.94;89.07
57056;BME280;42945;51.718;5.324;2023-02-28T18:09:04;102754.44;;;0.22;88.62
57056;BME280;42945;51.718;5.324;2023-02-28T18:14:52;102829.03;;;0.64;93.26
57056;BME280;42945;51.718;5.324;2023-02-28T18:20:42;102853.78;;;0.34;100.00
57056;BME280;42945;51.718;5.324;2023-02-28T18:26:29;102841.28;;;0.14;100.00
57056;BME280;42945;51.718;5.324;2023-02-28T18:32:18;102785.72;;;-0.73;100.00
57056;BME280;42945;51.718;5.324;2023-02-28T18:38:13;102989.84;;;0.51;100.00
57056;BME280;42945;51.718;5.324;2023-02-28T18:44:02;102819.78;;;-0.21;100.00
57056;BME280;42945;51.718;5.324;2023-02-28T18:49:49;102832.47;;;-0.38;100.00
57056;BME280;42945;51.718;5.324;2023-02-28T18:55:38;102828.56;;;-0.60;100.00
57056;BME280;42945;51.718;5.324;2023-02-28T19:01:27;102858.00;;;-0.64;100.00
57056;BME280;42945;51.718;5.324;2023-02-28T19:07:18;102854.09;;;-0.85;100.00
57056;BME280;42945;51.718;5.324;2023-02-28T19:13:07;102817.84;;;-0.74;100.00
57056;BME280;42945;51.718;5.324;2023-02-28T19:18:55;102738.13;;;-1.48;100.00
57056;BME280;42945;51.718;5.324;2023-02-28T19:24:44;102824.22;;;-1.01;100.00
57056;BME280;42945;51.718;5.324;2023-02-28T19:30:31;102867.59;;;-1.03;100.00
57056;BME280;42945;51.718;5.324;2023-02-28T19:40:09;102723.66;;;-1.74;100.00
57056;BME280;42945;51.718;5.324;2023-02-28T19:46:02;102958.88;;;-0.58;100.00
57056;BME280;42945;51.718;5.324;2023-02-28T19:51:49;102887.56;;;-1.38;100.00
57056;BME280;42945;51.718;5.324;2023-02-28T19:57:38;102852.41;;;-1.57;100.00
57056;BME280;42945;51.718;5.324;2023-02-28T20:03:27;102864.56;;;-1.56;100.00
57056;BME280;42945;51.718;5.324;2023-02-28T20:09:15;102890.84;;;-1.80;100.00
57056;BME280;42945;51.718;5.324;2023-02-28T20:15:04;102860.13;;;-1.60;100.00
57056;BME280;42945;51.718;5.324;2023-02-28T20:20:53;102886.69;;;-1.39;100.00
57056;BME280;42945;51.718;5.324;2023-02-28T20:26:41;102782.50;;;-2.45;100.00
57056;BME280;42945;51.718;5.324;2023-02-28T20:32:30;102870.75;;;-1.86;100.00
57056;BME280;42945;51.718;5.324;2023-02-28T20:42:14;102843.56;;;-1.97;100.00
57056;BME280;42945;51.718;5.324;2023-02-28T20:48:02;102933.22;;;-2.14;100.00
57056;BME280;42945;51.718;5.324;2023-02-28T20:53:50;102904.59;;;-2.16;100.00
57056;BME280;42945;51.718;5.324;2023-02-28T20:59:37;102850.41;;;-2.32;100.00
57056;BME280;42945;51.718;5.324;2023-02-28T21:05:27;102838.88;;;-2.42;100.00
57056;BME280;42945;51.718;5.324;2023-02-28T21:11:19;102876.75;;;-2.50;100.00
57056;BME280;42945;51.718;5.324;2023-02-28T21:17:08;102889.19;;;-2.40;100.00
57056;BME280;42945;51.718;5.324;2023-02-28T21:22:57;102905.00;;;-2.31;100.00
57056;BME280;42945;51.718;5.324;2023-02-28T21:28:56;102895.22;;;-2.11;100.00
57056;BME280;42945;51.718;5.324;2023-02-28T21:34:44;102886.75;;;-2.34;100.00
57056;BME280;42945;51.718;5.324;2023-02-28T21:44:35;102920.38;;;-2.40;100.00
57056;BME280;42945;51.718;5.324;2023-02-28T21:50:24;102869.84;;;-2.50;100.00
57056;BME280;42945;51.718;5.324;2023-02-28T21:56:18;102926.72;;;-2.59;100.00
57056;BME280;42945;51.718;5.324;2023-02-28T22:02:11;102773.88;;;-3.62;100.00
57056;BME280;42945;51.718;5.324;2023-02-28T22:08:00;102893.00;;;-2.86;100.00
57056;BME280;42945;51.718;5.324;2023-02-28T22:13:51;102791.81;;;-3.68;100.00
57056;BME280;42945;51.718;5.324;2023-02-28T22:19:40;102870.50;;;-2.86;100.00
57056;BME280;42945;51.718;5.324;2023-02-28T22:25:29;102848.38;;;-3.02;100.00
57056;BME280;42945;51.718;5.324;2023-02-28T22:31:21;103000.25;;;-2.04;100.00
57056;BME280;42945;51.718;5.324;2023-02-28T22:37:11;102871.47;;;-2.53;100.00
57056;BME280;42945;51.718;5.324;2023-02-28T22:47:00;102915.75;;;-3.06;100.00
57056;BME280;42945;51.718;5.324;2023-02-28T22:52:49;102910.13;;;-2.91;100.00
57056;BME280;42945;51.718;5.324;2023-02-28T22:58:38;102879.28;;;-3.09;100.00
57056;BME280;42945;51.718;5.324;2023-02-28T23:04:25;102131.19;;;-7.82;100.00
57056;BME280;42945;51.718;5.324;2023-02-28T23:10:16;102880.78;;;-3.43;100.00
57056;BME280;42945;51.718;5.324;2023-02-28T23:16:05;102954.53;;;-3.37;100.00
57056;BME280;42945;51.718;5.324;2023-02-28T23:21:55;102948.94;;;-2.96;100.00
57056;BME280;42945;51.718;5.324;2023-02-28T23:27:43;102804.75;;;-3.95;100.00
57056;BME280;42945;51.718;5.324;2023-02-28T23:33:32;102945.91;;;-3.10;100.00
57056;BME280;42945;51.718;5.324;2023-02-28T23:39:21;102949.19;;;-3.15;100.00
57056;BME280;42945;51.718;5.324;2023-02-28T23:49:05;102966.38;;;-3.45;100.00
57056;BME280;42945;51.718;5.324;2023-02-28T23:54:53;102932.66;;;-3.69;100.00
